createdAt,value
2023-03-10T00:00:05.781Z,99.90
2023-03-10T00:02:34.861Z,99.90
2023-03-10T00:05:02.649Z,99.90
2023-03-10T00:07:29.755Z,99.90
2023-03-10T00:09:56.576Z,99.90
2023-03-10T00:12:23.349Z,99.90
2023-03-10T00:14:50.069Z,99.90
2023-03-10T00:17:16.844Z,99.90
2023-03-10T00:19:43.647Z,99.90
2023-03-10T00:22:10.346Z,99.90
2023-03-10T00:24:36.997Z,99.90
2023-03-10T00:27:03.798Z,99.90
2023-03-10T00:29:30.502Z,99.90
2023-03-10T00:31:57.163Z,99.90
2023-03-10T00:34:23.883Z,99.90
2023-03-10T00:36:50.637Z,99.90
2023-03-10T00:39:17.553Z,99.90
2023-03-10T00:41:44.295Z,99.90
2023-03-10T00:44:11.680Z,99.90
2023-03-10T00:46:38.940Z,99.90
2023-03-10T00:49:07.536Z,99.90
2023-03-10T00:51:35.653Z,99.90
2023-03-10T00:54:03.254Z,99.90
2023-03-10T00:56:31.043Z,99.90
2023-03-10T00:59:00.593Z,99.90
2023-03-10T01:01:30.959Z,99.90
2023-03-10T01:04:00.702Z,99.90
2023-03-10T01:06:27.983Z,99.90
2023-03-10T01:08:54.896Z,99.90
2023-03-10T01:11:24.935Z,99.90
2023-03-10T01:13:52.701Z,99.90
2023-03-10T01:16:19.618Z,99.90
2023-03-10T01:18:46.422Z,99.90
2023-03-10T01:21:24.838Z,99.90
2023-03-10T01:23:52.233Z,99.90
2023-03-10T01:26:19.647Z,99.90
2023-03-10T01:28:47.647Z,99.90
2023-03-10T01:31:15.284Z,99.90
2023-03-10T01:33:43.621Z,99.90
2023-03-10T01:36:12.010Z,99.90
2023-03-10T01:38:39.524Z,99.90
2023-03-10T01:41:06.743Z,99.90
2023-03-10T01:43:36.245Z,99.90
2023-03-10T01:46:06.005Z,99.90
2023-03-10T01:48:36.053Z,99.90
2023-03-10T01:51:03.724Z,99.90
2023-03-10T01:53:30.654Z,99.90
2023-03-10T01:56:02.960Z,99.90
2023-03-10T01:58:42.477Z,99.90
2023-03-10T02:01:11.695Z,99.90
2023-03-10T02:03:46.322Z,99.90
2023-03-10T02:06:16.490Z,99.90
2023-03-10T02:08:47.570Z,99.90
2023-03-10T02:11:15.036Z,99.90
2023-03-10T02:13:41.758Z,99.90
2023-03-10T02:16:08.847Z,99.90
2023-03-10T02:18:35.794Z,99.90
2023-03-10T02:21:12.066Z,99.90
2023-03-10T02:24:00.910Z,99.90
2023-03-10T02:26:59.571Z,99.90
2023-03-10T02:29:52.423Z,99.90
2023-03-10T02:32:25.718Z,99.90
2023-03-10T02:34:52.624Z,99.90
2023-03-10T02:37:21.867Z,99.90
2023-03-10T02:39:48.633Z,99.90
2023-03-10T02:42:15.534Z,99.90
2023-03-10T02:44:43.394Z,99.90
2023-03-10T02:47:10.939Z,99.90
2023-03-10T02:49:37.816Z,99.90
2023-03-10T02:52:09.978Z,99.90
2023-03-10T02:54:36.797Z,99.90
2023-03-10T02:57:03.637Z,99.90
2023-03-10T02:59:30.461Z,99.90
2023-03-10T03:01:57.268Z,99.90
2023-03-10T03:04:24.079Z,99.90
2023-03-10T03:06:50.734Z,99.90
2023-03-10T03:09:17.422Z,99.90
2023-03-10T03:11:44.228Z,99.90
2023-03-10T03:14:10.915Z,99.90
2023-03-10T03:16:37.741Z,99.90
2023-03-10T03:19:04.492Z,99.90
2023-03-10T03:21:31.359Z,99.90
2023-03-10T03:23:58.645Z,99.90
2023-03-10T03:26:27.033Z,99.90
2023-03-10T03:28:53.827Z,99.90
2023-03-10T03:31:22.889Z,99.90
2023-03-10T03:33:49.807Z,99.90
2023-03-10T03:36:16.857Z,99.90
2023-03-10T03:38:43.630Z,99.90
2023-03-10T03:41:10.833Z,99.90
2023-03-10T03:43:37.622Z,99.90
2023-03-10T03:46:04.953Z,99.90
2023-03-10T03:48:31.713Z,99.90
2023-03-10T03:50:58.406Z,99.90
2023-03-10T03:53:25.121Z,99.90
2023-03-10T03:55:51.840Z,99.90
2023-03-10T03:58:18.827Z,99.90
2023-03-10T04:00:45.587Z,99.90
2023-03-10T04:03:12.508Z,99.90
2023-03-10T04:05:39.477Z,99.90
2023-03-10T04:08:06.938Z,99.90
2023-03-10T04:10:34.229Z,99.90
2023-03-10T04:13:00.921Z,99.90
2023-03-10T04:15:28.194Z,99.90
2023-03-10T04:17:55.028Z,99.90
2023-03-10T04:20:21.770Z,99.90
2023-03-10T04:22:48.596Z,99.90
2023-03-10T04:25:15.257Z,99.90
2023-03-10T04:27:41.941Z,99.90
2023-03-10T04:30:10.162Z,99.90
2023-03-10T04:32:36.949Z,99.90
2023-03-10T04:35:05.030Z,99.90
2023-03-10T04:37:31.854Z,99.90
2023-03-10T04:39:58.602Z,99.90
2023-03-10T04:42:27.518Z,99.90
2023-03-10T04:44:54.304Z,99.90
2023-03-10T04:47:20.991Z,99.90
2023-03-10T04:49:47.655Z,99.90
2023-03-10T04:52:14.540Z,99.90
2023-03-10T04:54:41.426Z,99.90
2023-03-10T04:57:08.290Z,99.90
2023-03-10T04:59:35.136Z,99.90
2023-03-10T05:02:01.911Z,99.90
2023-03-10T05:04:28.800Z,99.90
2023-03-10T05:06:55.574Z,99.90
2023-03-10T05:09:22.281Z,99.90
2023-03-10T05:11:49.053Z,99.90
2023-03-10T05:14:16.617Z,99.90
2023-03-10T05:16:43.704Z,99.90
2023-03-10T05:19:10.509Z,99.90
2023-03-10T05:21:37.386Z,99.90
2023-03-10T05:24:04.376Z,99.90
2023-03-10T05:26:33.529Z,99.90
2023-03-10T05:29:01.505Z,99.90
2023-03-10T05:31:28.321Z,99.90
2023-03-10T05:33:55.110Z,99.90
2023-03-10T05:36:22.388Z,99.90
2023-03-10T05:38:49.671Z,99.90
2023-03-10T05:41:16.627Z,99.90
2023-03-10T05:43:43.458Z,99.90
2023-03-10T05:46:11.527Z,99.90
2023-03-10T05:48:38.863Z,99.90
2023-03-10T05:51:11.822Z,99.90
2023-03-10T05:53:39.537Z,99.90
2023-03-10T05:56:12.373Z,99.90
2023-03-10T05:58:39.347Z,99.90
2023-03-10T06:01:07.086Z,99.90
2023-03-10T06:03:34.557Z,99.90
2023-03-10T06:06:01.797Z,99.90
2023-03-10T06:08:29.013Z,99.90
2023-03-10T06:10:56.590Z,99.90
2023-03-10T06:13:24.026Z,99.90
2023-03-10T06:15:56.183Z,99.90
2023-03-10T06:18:23.346Z,99.90
2023-03-10T06:20:50.231Z,99.90
2023-03-10T06:23:17.948Z,99.90
2023-03-10T06:25:45.161Z,99.90
2023-03-10T06:28:12.553Z,99.90
2023-03-10T06:30:39.288Z,99.90
2023-03-10T06:33:06.098Z,99.90
2023-03-10T06:35:33.025Z,99.90
2023-03-10T06:38:00.169Z,99.90
2023-03-10T06:40:26.902Z,99.90
2023-03-10T06:42:53.599Z,99.90
2023-03-10T06:45:20.445Z,99.90
2023-03-10T06:47:47.226Z,99.90
2023-03-10T06:50:14.154Z,99.90
2023-03-10T06:52:42.540Z,99.90
2023-03-10T06:55:10.790Z,99.90
2023-03-10T06:57:37.846Z,99.90
2023-03-10T07:00:05.639Z,99.90
2023-03-10T07:02:32.423Z,99.90
2023-03-10T07:04:59.338Z,99.90
2023-03-10T07:07:26.222Z,99.90
2023-03-10T07:09:52.974Z,99.90
2023-03-10T07:12:19.628Z,99.90
2023-03-10T07:14:46.461Z,99.90
2023-03-10T07:17:13.296Z,99.90
2023-03-10T07:19:40.162Z,99.90
2023-03-10T07:22:06.982Z,99.90
2023-03-10T07:24:34.235Z,99.90
2023-03-10T07:27:01.734Z,99.90
2023-03-10T07:29:28.873Z,99.90
2023-03-10T07:31:56.082Z,99.90
2023-03-10T07:34:23.005Z,99.90
2023-03-10T07:36:49.786Z,99.90
2023-03-10T07:39:16.567Z,99.90
2023-03-10T07:41:43.271Z,99.90
2023-03-10T07:44:09.997Z,99.90
2023-03-10T07:46:36.738Z,99.90
2023-03-10T07:49:06.794Z,99.90
2023-03-10T07:51:34.108Z,99.90
2023-03-10T07:54:01.134Z,99.90
2023-03-10T07:56:27.928Z,99.90
2023-03-10T07:58:54.619Z,99.90
2023-03-10T08:01:22.306Z,99.90
2023-03-10T08:03:49.812Z,99.90
2023-03-10T08:06:24.773Z,99.90
2023-03-10T08:08:52.147Z,99.90
2023-03-10T08:11:19.319Z,99.90
2023-03-10T08:13:47.640Z,99.90
2023-03-10T08:16:16.396Z,99.90
2023-03-10T08:18:43.642Z,99.90
2023-03-10T08:21:10.577Z,99.90
2023-03-10T08:23:38.245Z,99.90
2023-03-10T08:26:08.217Z,99.90
2023-03-10T08:28:37.594Z,99.90
2023-03-10T08:31:16.047Z,99.90
2023-03-10T08:33:44.079Z,99.90
2023-03-10T08:36:20.059Z,99.90
2023-03-10T08:38:48.252Z,99.90
2023-03-10T08:41:18.735Z,99.90
2023-03-10T08:43:48.890Z,99.90
2023-03-10T08:46:17.058Z,99.90
2023-03-10T08:48:43.846Z,99.90
2023-03-10T08:51:13.118Z,99.90
2023-03-10T08:53:41.901Z,99.90
2023-03-10T08:56:08.599Z,99.90
2023-03-10T08:58:35.463Z,99.90
2023-03-10T09:01:02.394Z,99.90
2023-03-10T09:03:31.662Z,99.90
2023-03-10T09:05:58.921Z,99.90
2023-03-10T09:08:27.518Z,99.90
2023-03-10T09:10:54.790Z,99.90
2023-03-10T09:13:21.799Z,99.90
2023-03-10T09:15:48.698Z,99.90
2023-03-10T09:18:15.972Z,99.90
2023-03-10T09:20:43.752Z,99.90
2023-03-10T09:23:15.960Z,99.90
2023-03-10T09:25:42.828Z,99.90
2023-03-10T09:28:11.598Z,99.90
2023-03-10T09:30:40.990Z,99.90
2023-03-10T09:33:15.026Z,99.90
2023-03-10T09:35:52.556Z,99.90
2023-03-10T09:38:19.744Z,99.90
2023-03-10T09:40:53.733Z,99.90
2023-03-10T09:43:23.147Z,99.90
2023-03-10T09:46:10.017Z,99.90
2023-03-10T09:49:04.035Z,99.90
2023-03-10T09:51:30.852Z,99.90
2023-03-10T09:54:11.594Z,99.90
2023-03-10T09:56:39.085Z,99.90
2023-03-10T09:59:11.240Z,99.90
2023-03-10T10:01:44.311Z,99.90
2023-03-10T10:04:12.785Z,99.90
2023-03-10T10:06:44.316Z,99.90
2023-03-10T10:09:29.055Z,99.90
2023-03-10T10:11:56.186Z,99.90
2023-03-10T10:14:30.846Z,99.90
2023-03-10T10:17:22.353Z,99.90
2023-03-10T10:19:49.943Z,99.90
2023-03-10T10:22:25.586Z,99.90
2023-03-10T10:25:17.938Z,99.90
2023-03-10T10:27:46.009Z,99.90
2023-03-10T10:30:27.765Z,99.90
2023-03-10T10:33:05.077Z,99.90
2023-03-10T10:35:40.756Z,99.90
2023-03-10T10:38:10.631Z,99.90
2023-03-10T10:41:00.256Z,99.90
2023-03-10T10:43:27.354Z,99.90
2023-03-10T10:46:04.336Z,99.90
2023-03-10T10:48:45.093Z,99.90
2023-03-10T10:51:30.066Z,99.90
2023-03-10T10:53:58.639Z,99.90
2023-03-10T10:56:28.630Z,99.90
2023-03-10T10:59:22.245Z,99.90
2023-03-10T11:01:58.366Z,99.90
2023-03-10T11:04:28.319Z,99.90
2023-03-10T11:07:10.672Z,99.90
2023-03-10T11:09:38.429Z,99.90
2023-03-10T11:12:11.659Z,99.90
2023-03-10T11:14:52.513Z,99.90
2023-03-10T11:17:27.495Z,99.90
2023-03-10T11:20:16.122Z,99.90
2023-03-10T11:22:49.505Z,99.90
2023-03-10T11:26:01.291Z,99.90
2023-03-10T11:28:33.855Z,99.90
2023-03-10T11:31:10.085Z,99.90
2023-03-10T11:33:50.390Z,99.90
2023-03-10T11:36:28.829Z,99.90
2023-03-10T11:39:08.758Z,99.90
2023-03-10T11:41:39.755Z,99.90
2023-03-10T11:44:29.012Z,99.90
2023-03-10T11:47:15.655Z,99.90
2023-03-10T11:49:45.739Z,99.90
2023-03-10T11:52:19.160Z,99.90
2023-03-10T11:54:49.983Z,99.90
2023-03-10T11:57:22.113Z,99.90
2023-03-10T12:00:05.728Z,99.90
2023-03-10T12:02:52.998Z,99.90
2023-03-10T12:05:27.164Z,99.90
2023-03-10T12:07:58.247Z,99.90
2023-03-10T12:10:25.690Z,99.90
2023-03-10T12:12:54.051Z,96.20
2023-03-10T12:15:25.086Z,94.60
2023-03-10T12:17:53.945Z,92.70
2023-03-10T12:20:20.577Z,91.30
2023-03-10T12:22:59.395Z,88.00
2023-03-10T12:25:29.199Z,80.40
2023-03-10T12:28:17.595Z,76.30
2023-03-10T12:30:59.056Z,74.80
2023-03-10T12:33:37.277Z,71.60
2023-03-10T12:36:27.716Z,69.60
2023-03-10T12:38:57.865Z,67.90
2023-03-10T12:41:27.681Z,64.60
2023-03-10T12:43:57.543Z,62.50
2023-03-10T12:46:29.323Z,60.20
2023-03-10T12:49:14.139Z,60.00
2023-03-10T12:51:44.390Z,59.60
2023-03-10T12:54:28.858Z,58.90
2023-03-10T12:57:10.019Z,56.10
2023-03-10T13:00:01.582Z,55.00
2023-03-10T13:02:55.578Z,53.70
2023-03-10T13:05:32.895Z,54.60
2023-03-10T13:08:34.863Z,54.90
2023-03-10T13:11:02.602Z,55.60
2023-03-10T13:13:33.101Z,55.70
2023-03-10T13:16:03.260Z,56.60
2023-03-10T13:18:30.655Z,59.80
2023-03-10T13:21:01.591Z,60.30
2023-03-10T13:23:34.292Z,58.90
2023-03-10T13:26:09.014Z,58.50
2023-03-10T13:28:36.533Z,56.80
2023-03-10T13:31:15.260Z,55.50
2023-03-10T13:33:52.921Z,57.10
2023-03-10T13:36:40.228Z,57.80
2023-03-10T13:39:16.247Z,57.50
2023-03-10T13:41:54.433Z,55.20
2023-03-10T13:44:33.720Z,56.40
2023-03-10T13:47:04.408Z,55.80
2023-03-10T13:49:34.182Z,55.40
2023-03-10T13:52:04.872Z,54.10
2023-03-10T13:54:37.073Z,53.20
2023-03-10T13:57:13.476Z,53.60
2023-03-10T13:59:40.584Z,52.10
2023-03-10T14:02:28.240Z,52.90
2023-03-10T14:04:55.769Z,52.20
2023-03-10T14:07:30.928Z,51.20
2023-03-10T14:10:07.848Z,51.50
2023-03-10T14:12:55.097Z,50.80
2023-03-10T14:15:38.771Z,50.10
2023-03-10T14:18:08.311Z,51.80
2023-03-10T14:20:39.013Z,55.30
2023-03-10T14:23:23.750Z,58.00
2023-03-10T14:25:55.772Z,60.60
2023-03-10T14:28:30.128Z,63.10
2023-03-10T14:30:57.325Z,65.30
2023-03-10T14:33:24.475Z,67.00
2023-03-10T14:35:51.241Z,67.50
2023-03-10T14:38:18.194Z,68.40
2023-03-10T14:40:48.212Z,70.20
2023-03-10T14:43:22.331Z,72.70
2023-03-10T14:45:50.719Z,72.40
2023-03-10T14:48:21.264Z,72.90
2023-03-10T14:50:48.870Z,74.70
2023-03-10T14:53:21.288Z,75.80
2023-03-10T14:55:51.864Z,77.60
2023-03-10T14:58:22.502Z,78.90
2023-03-10T15:00:50.746Z,79.70
2023-03-10T15:03:17.644Z,80.70
2023-03-10T15:05:48.589Z,81.40
2023-03-10T15:08:16.805Z,81.50
2023-03-10T15:10:48.234Z,81.80
2023-03-10T15:13:16.784Z,82.40
2023-03-10T15:15:47.656Z,82.70
2023-03-10T15:18:16.905Z,80.70
2023-03-10T15:20:43.756Z,79.10
2023-03-10T15:23:13.017Z,79.60
2023-03-10T15:25:41.991Z,79.90
2023-03-10T15:28:10.709Z,80.60
2023-03-10T15:30:37.546Z,80.70
2023-03-10T15:33:04.916Z,81.00
2023-03-10T15:35:32.150Z,81.70
2023-03-10T15:37:59.172Z,82.90
2023-03-10T15:40:29.016Z,82.20
2023-03-10T15:42:57.256Z,82.40
2023-03-10T15:45:26.508Z,81.90
2023-03-10T15:47:53.317Z,81.50
2023-03-10T15:50:21.116Z,81.50
2023-03-10T15:52:56.259Z,80.70
2023-03-10T15:55:23.656Z,79.20
2023-03-10T15:57:50.607Z,79.10
2023-03-10T16:00:20.634Z,79.00
2023-03-10T16:02:48.429Z,79.30
2023-03-10T16:05:15.581Z,78.90
2023-03-10T16:07:42.353Z,78.60
2023-03-10T16:10:10.881Z,78.90
2023-03-10T16:12:37.662Z,78.90
2023-03-10T16:15:05.169Z,78.70
2023-03-10T16:17:31.855Z,79.20
2023-03-10T16:20:01.944Z,79.90
2023-03-10T16:22:28.820Z,80.20
2023-03-10T16:24:55.669Z,80.00
2023-03-10T16:27:22.468Z,80.60
2023-03-10T16:29:49.182Z,81.90
2023-03-10T16:32:17.669Z,82.00
2023-03-10T16:34:44.547Z,81.50
2023-03-10T16:37:11.365Z,82.00
2023-03-10T16:39:38.041Z,81.60
2023-03-10T16:42:04.969Z,81.00
2023-03-10T16:44:31.742Z,81.00
2023-03-10T16:46:58.484Z,81.50
2023-03-10T16:49:25.303Z,81.60
2023-03-10T16:51:52.107Z,81.40
2023-03-10T16:54:22.540Z,81.50
2023-03-10T16:56:51.720Z,83.30
2023-03-10T16:59:24.713Z,83.70
2023-03-10T17:01:51.822Z,83.00
2023-03-10T17:04:19.149Z,82.80
2023-03-10T17:06:47.583Z,83.30
2023-03-10T17:09:15.439Z,86.60
2023-03-10T17:11:46.563Z,88.80
2023-03-10T17:14:15.734Z,89.50
2023-03-10T17:16:43.559Z,89.90
2023-03-10T17:19:16.164Z,88.30
2023-03-10T17:21:45.876Z,87.60
2023-03-10T17:24:14.526Z,88.50
2023-03-10T17:26:41.725Z,90.10
2023-03-10T17:29:09.196Z,91.00
2023-03-10T17:31:36.685Z,91.40
2023-03-10T17:34:06.810Z,91.30
2023-03-10T17:36:34.321Z,91.00
2023-03-10T17:39:02.622Z,91.80
2023-03-10T17:41:30.214Z,91.50
2023-03-10T17:43:56.963Z,91.10
2023-03-10T17:46:27.233Z,91.30
2023-03-10T17:48:54.192Z,92.00
2023-03-10T17:51:23.565Z,92.30
2023-03-10T17:53:51.215Z,93.40
2023-03-10T17:56:18.242Z,93.10
2023-03-10T17:58:45.435Z,93.20
2023-03-10T18:01:15.170Z,93.00
2023-03-10T18:03:41.930Z,93.00
2023-03-10T18:06:22.846Z,93.00
2023-03-10T18:08:50.770Z,93.40
2023-03-10T18:11:19.870Z,93.30
2023-03-10T18:13:46.953Z,94.00
2023-03-10T18:16:35.482Z,94.80
2023-03-10T18:19:02.229Z,94.70
2023-03-10T18:21:29.024Z,94.50
2023-03-10T18:23:56.058Z,93.40
2023-03-10T18:26:27.343Z,93.10
2023-03-10T18:28:54.162Z,93.00
2023-03-10T18:31:26.607Z,92.70
2023-03-10T18:33:53.398Z,92.30
2023-03-10T18:36:21.134Z,92.20
2023-03-10T18:38:48.920Z,92.60
2023-03-10T18:41:23.062Z,93.60
2023-03-10T18:43:50.149Z,94.10
2023-03-10T18:46:17.133Z,93.90
2023-03-10T18:48:44.021Z,93.60
2023-03-10T18:51:11.724Z,93.60
2023-03-10T18:53:39.307Z,93.60
2023-03-10T18:56:06.569Z,93.40
2023-03-10T18:58:33.411Z,90.70
2023-03-10T19:01:00.175Z,88.70
2023-03-10T19:03:30.987Z,85.50
2023-03-10T19:05:58.230Z,82.70
2023-03-10T19:08:27.032Z,80.70
2023-03-10T19:10:55.958Z,79.30
2023-03-10T19:13:23.650Z,78.10
2023-03-10T19:15:50.445Z,77.20
2023-03-10T19:18:17.215Z,75.30
2023-03-10T19:20:43.983Z,75.10
2023-03-10T19:23:10.715Z,76.00
2023-03-10T19:25:37.452Z,76.70
2023-03-10T19:28:04.413Z,78.50
2023-03-10T19:30:33.821Z,76.40
2023-03-10T19:33:00.594Z,74.90
2023-03-10T19:35:27.477Z,74.10
2023-03-10T19:37:54.495Z,72.20
2023-03-10T19:40:22.964Z,70.50
2023-03-10T19:42:49.831Z,67.80
2023-03-10T19:45:17.923Z,66.80
2023-03-10T19:47:45.378Z,64.90
2023-03-10T19:50:15.727Z,64.60
2023-03-10T19:52:47.577Z,64.00
2023-03-10T19:55:20.250Z,64.00
2023-03-10T19:57:48.574Z,63.60
2023-03-10T20:00:17.285Z,63.10
2023-03-10T20:02:44.818Z,63.50
2023-03-10T20:05:14.349Z,64.30
2023-03-10T20:07:42.543Z,65.40
2023-03-10T20:10:10.624Z,66.90
2023-03-10T20:12:37.292Z,71.90
2023-03-10T20:15:05.205Z,73.90
2023-03-10T20:17:32.229Z,75.40
2023-03-10T20:19:59.012Z,76.70
2023-03-10T20:22:25.764Z,77.90
2023-03-10T20:24:52.855Z,78.70
2023-03-10T20:27:19.696Z,79.00
2023-03-10T20:29:46.401Z,79.20
2023-03-10T20:32:13.225Z,80.40
2023-03-10T20:34:41.238Z,81.20
2023-03-10T20:37:08.371Z,81.90
2023-03-10T20:39:35.218Z,82.80
2023-03-10T20:42:02.010Z,83.40
2023-03-10T20:44:28.738Z,83.90
2023-03-10T20:46:55.490Z,85.20
2023-03-10T20:49:22.265Z,85.00
2023-03-10T20:51:48.994Z,85.10
2023-03-10T20:54:15.858Z,85.50
2023-03-10T20:56:42.628Z,86.00
2023-03-10T20:59:09.468Z,85.80
2023-03-10T21:01:39.883Z,85.70
2023-03-10T21:04:06.860Z,86.00
2023-03-10T21:06:33.757Z,85.40
2023-03-10T21:09:05.771Z,84.90
2023-03-10T21:11:35.804Z,84.70
2023-03-10T21:14:02.803Z,84.00
2023-03-10T21:16:29.705Z,83.60
2023-03-10T21:18:56.569Z,83.20
2023-03-10T21:21:23.349Z,83.00
2023-03-10T21:23:50.303Z,83.10
2023-03-10T21:26:20.108Z,83.00
2023-03-10T21:28:47.308Z,83.10
2023-03-10T21:31:14.921Z,83.20
2023-03-10T21:33:41.791Z,82.80
2023-03-10T21:36:15.738Z,83.20
2023-03-10T21:38:42.557Z,83.50
2023-03-10T21:41:10.733Z,84.00
2023-03-10T21:43:37.573Z,83.70
2023-03-10T21:46:04.565Z,83.90
2023-03-10T21:48:31.318Z,84.40
2023-03-10T21:50:58.106Z,84.40
2023-03-10T21:53:26.611Z,84.80
2023-03-10T21:55:54.272Z,84.60
2023-03-10T21:58:23.522Z,84.80
2023-03-10T22:00:50.805Z,84.80
2023-03-10T22:03:18.050Z,84.80
2023-03-10T22:05:44.992Z,84.90
2023-03-10T22:08:11.778Z,84.80
2023-03-10T22:10:38.596Z,84.60
2023-03-10T22:13:05.392Z,84.20
2023-03-10T22:15:32.068Z,83.60
2023-03-10T22:17:59.550Z,83.40
2023-03-10T22:20:27.556Z,83.40
2023-03-10T22:22:54.936Z,83.70
2023-03-10T22:25:21.998Z,84.00
2023-03-10T22:27:51.310Z,83.20
2023-03-10T22:30:19.742Z,83.00
2023-03-10T22:32:46.873Z,82.90
2023-03-10T22:35:14.214Z,82.50
2023-03-10T22:37:41.265Z,82.50
2023-03-10T22:40:12.510Z,82.50
2023-03-10T22:42:39.840Z,82.40
2023-03-10T22:45:14.467Z,81.80
2023-03-10T22:47:41.163Z,82.00
2023-03-10T22:50:08.599Z,82.10
2023-03-10T22:52:35.237Z,82.40
2023-03-10T22:55:01.983Z,83.20
2023-03-10T22:57:28.701Z,84.00
2023-03-10T22:59:55.346Z,84.40
2023-03-10T23:02:22.121Z,84.50
2023-03-10T23:04:48.814Z,84.30
2023-03-10T23:07:15.506Z,84.70
2023-03-10T23:09:42.245Z,85.10
2023-03-10T23:12:09.411Z,85.50
2023-03-10T23:14:36.139Z,86.20
2023-03-10T23:17:04.165Z,86.50
2023-03-10T23:19:30.879Z,87.00
2023-03-10T23:21:57.619Z,87.40
2023-03-10T23:24:24.488Z,87.80
2023-03-10T23:26:51.181Z,87.70
2023-03-10T23:29:17.965Z,87.80
2023-03-10T23:31:44.783Z,87.90
2023-03-10T23:34:11.534Z,87.80
2023-03-10T23:36:38.269Z,88.50
2023-03-10T23:39:05.440Z,89.90
2023-03-10T23:41:32.178Z,89.20
2023-03-10T23:43:58.988Z,88.90
2023-03-10T23:46:25.708Z,88.80
2023-03-10T23:48:52.405Z,88.70
2023-03-10T23:51:19.172Z,88.60
2023-03-10T23:53:46.268Z,88.80
2023-03-10T23:56:13.232Z,88.30
2023-03-10T23:58:40.283Z,87.10
